Sign-in with your pilot id or email, or register

ICAO: LKMT Name / Country: Ostrava / Mosnov / Czechia
Latitude: 49.6963 Longitude: 18.1111
Total Arrivals:
Strict Standards: Non-static method AirportData::getarrflights() should not be called statically, assuming $this from incompatible context in /var/www/customers/vh-7192/web/home/phpvms/core/templates/airport_info.tpl on line 18
1
Total Departures:
Strict Standards: Non-static method AirportData::getdeptflights() should not be called statically, assuming $this from incompatible context in /var/www/customers/vh-7192/web/home/phpvms/core/templates/airport_info.tpl on line 21
0
Latest Arrival: MTA11P (LHBP-LKMT) Tibor Berces Latest Departure: (-)
Metar: LKMT 252230Z VRB02KT 0600 R22/0800 R04/1300U FG BKN001 OVC027 09/09 Q1010 BECMG 0800 FG
More info

Charts for LKMT


NOTAM


Warning: file_get_contents(http://api.vateud.net/notams/LKMT.json): failed to open stream: Redirection limit reached, aborting in /var/www/customers/vh-7192/web/home/phpvms/core/common/NOTAMSData.class.php on line 18

Warning: Invalid argument supplied for foreach() in /var/www/customers/vh-7192/web/home/phpvms/core/common/NOTAMSData.class.php on line 22

Ostrava / Mosnov